VMMC/MFM METAR and TAF weather

Enter ICAO airport designator
Station Type Date Time Source
VMMC METAR 2022/12/05 15:00 UTC NOAA

VMMC 051500Z 35018KT CAVOK 15/11 Q1020 NOSIG


Station Type Date Time Source
VMMC Decoded METAR 2022/12/05 15:00 UTC NOAA

Taipa, Macau (VMMC) 22-10N 113-34E
Dec 05, 2022 - 10:00 AM EST / 2022.12.05 1500 UTC
Wind: from the N (350 degrees) at 21 MPH (18 KT):0
Visibility: greater than 7 mile(s):0
Temperature: 59 F (15 C)
Dew Point: 51 F (11 C)
Relative Humidity: 76%
Pressure (altimeter): 30.12 in. Hg (1020 hPa)
ob: VMMC 051500Z 35018KT CAVOK 15/11 Q1020 NOSIG
cycle: 15

Station Type Date Time Source
VMMC TAF 2022/12/05 12:21 UTC NOAA

TAF TAF VMMC 051100Z 0512/0618 36016KT 9999 FEW030

Example: see airport list